TAP19UT LEMD-LPPT
Flight info
| Callsign | TAP19UT |
|---|---|
| Flight time | N/A |
| Altitude | 33000 |
| Route | CCS DCT ELVAR DCT UPULO |
| Aircraft | A320/M-SDE3FGHIJ1RWXYZ/LB1 |
Departure
| Time | N/A |
|---|---|
| Airport | Adolfo Suárez Madrid–Barajas Airport (LEMD) |
Arrival
| Time | 2026-05-07 16:57 |
|---|---|
| Airport | Lisbon Humberto Delgado Airport (LPPT) |
| Time | Latitude | Longitude | Altitude | Speed | Heading |
|---|---|---|---|---|---|
| 2026-05-07 16:12 | 40.33404 | -5.05895 | 29989 ft | 423 kts | 240° |
| 2026-05-07 16:13 | 40.31628 | -5.08974 | 30273 ft | 425 kts | 240° |
| 2026-05-07 16:13 | 40.29846 | -5.12066 | 30564 ft | 426 kts | 240° |
| 2026-05-07 16:13 | 40.28058 | -5.15167 | 30861 ft | 426 kts | 240° |
| 2026-05-07 16:13 | 40.26271 | -5.18264 | 31107 ft | 427 kts | 240° |
| 2026-05-07 16:14 | 40.24484 | -5.21351 | 31528 ft | 424 kts | 240° |
| 2026-05-07 16:14 | 40.22707 | -5.24410 | 31914 ft | 421 kts | 240° |
| 2026-05-07 16:14 | 40.20939 | -5.27451 | 32328 ft | 418 kts | 240° |
| 2026-05-07 16:14 | 40.19185 | -5.30471 | 32722 ft | 416 kts | 241° |
| 2026-05-07 16:15 | 40.17440 | -5.33482 | 32826 ft | 413 kts | 240° |
| 2026-05-07 16:15 | 40.14026 | -5.39346 | 32876 ft | 401 kts | 240° |
| 2026-05-07 16:16 | 40.10656 | -5.45141 | 32877 ft | 400 kts | 240° |
| 2026-05-07 16:16 | 40.07375 | -5.50783 | 32871 ft | 399 kts | 240° |
| 2026-05-07 16:17 | 40.04051 | -5.56462 | 32871 ft | 399 kts | 240° |
| 2026-05-07 16:17 | 40.00656 | -5.62270 | 32869 ft | 399 kts | 240° |
| 2026-05-07 16:18 | 39.97284 | -5.68017 | 32860 ft | 399 kts | 240° |
| 2026-05-07 16:18 | 39.93932 | -5.73719 | 32829 ft | 399 kts | 239° |
| 2026-05-07 16:19 | 39.90538 | -5.79484 | 32837 ft | 398 kts | 239° |
| 2026-05-07 16:19 | 39.87187 | -5.85166 | 32822 ft | 398 kts | 239° |
| 2026-05-07 16:20 | 39.83813 | -5.90882 | 32830 ft | 398 kts | 239° |
| 2026-05-07 16:20 | 39.80438 | -5.96576 | 32834 ft | 398 kts | 239° |
| 2026-05-07 16:21 | 39.77061 | -6.02266 | 32831 ft | 398 kts | 239° |
| 2026-05-07 16:21 | 39.73682 | -6.07960 | 32832 ft | 397 kts | 239° |
| 2026-05-07 16:22 | 39.70308 | -6.13645 | 32818 ft | 397 kts | 239° |
| 2026-05-07 16:22 | 39.66923 | -6.19322 | 32827 ft | 398 kts | 239° |
| 2026-05-07 16:23 | 39.63529 | -6.24991 | 32796 ft | 398 kts | 239° |
| 2026-05-07 16:23 | 39.60135 | -6.30655 | 32807 ft | 398 kts | 239° |
| 2026-05-07 16:24 | 39.56742 | -6.36325 | 32821 ft | 398 kts | 239° |
| 2026-05-07 16:24 | 39.53340 | -6.41988 | 32826 ft | 398 kts | 239° |
| 2026-05-07 16:25 | 39.50417 | -6.47965 | 32825 ft | 390 kts | 248° |
| 2026-05-07 16:25 | 39.48106 | -6.54294 | 32827 ft | 388 kts | 250° |
| 2026-05-07 16:26 | 39.45861 | -6.60646 | 32835 ft | 388 kts | 249° |
| 2026-05-07 16:26 | 39.43495 | -6.66935 | 32826 ft | 389 kts | 248° |
| 2026-05-07 16:27 | 39.41064 | -6.73179 | 32825 ft | 389 kts | 248° |
| 2026-05-07 16:27 | 39.38635 | -6.79418 | 32825 ft | 388 kts | 248° |
| 2026-05-07 16:28 | 39.36221 | -6.85659 | 32800 ft | 388 kts | 248° |
| 2026-05-07 16:28 | 39.33811 | -6.91894 | 32807 ft | 388 kts | 248° |
| 2026-05-07 16:29 | 39.31392 | -6.98125 | 32809 ft | 388 kts | 247° |
| 2026-05-07 16:29 | 39.28967 | -7.04355 | 32821 ft | 389 kts | 247° |
| 2026-05-07 16:30 | 39.26534 | -7.10590 | 32821 ft | 389 kts | 247° |
| 2026-05-07 16:30 | 39.24101 | -7.16819 | 32833 ft | 389 kts | 247° |
| 2026-05-07 16:31 | 39.21658 | -7.23051 | 32829 ft | 393 kts | 246° |
| 2026-05-07 16:31 | 39.20399 | -7.26217 | 32467 ft | 400 kts | 246° |
| 2026-05-07 16:31 | 39.19099 | -7.29422 | 31418 ft | 407 kts | 245° |
| 2026-05-07 16:31 | 39.17769 | -7.32654 | 30605 ft | 408 kts | 245° |
| 2026-05-07 16:32 | 39.16434 | -7.35881 | 29912 ft | 407 kts | 245° |
| 2026-05-07 16:32 | 39.15108 | -7.39090 | 29126 ft | 405 kts | 245° |
| 2026-05-07 16:32 | 39.13789 | -7.42286 | 28416 ft | 402 kts | 244° |
| 2026-05-07 16:32 | 39.12490 | -7.45437 | 27920 ft | 395 kts | 244° |
| 2026-05-07 16:33 | 39.11230 | -7.48502 | 27419 ft | 389 kts | 244° |
| 2026-05-07 16:33 | 39.09977 | -7.51557 | 26939 ft | 383 kts | 244° |
| 2026-05-07 16:33 | 39.08743 | -7.54571 | 26473 ft | 378 kts | 244° |
| 2026-05-07 16:33 | 39.07527 | -7.57538 | 26010 ft | 372 kts | 244° |
| 2026-05-07 16:34 | 39.06325 | -7.60461 | 25559 ft | 367 kts | 243° |
| 2026-05-07 16:34 | 39.05140 | -7.63338 | 25143 ft | 362 kts | 243° |
| 2026-05-07 16:34 | 39.03972 | -7.66181 | 24722 ft | 357 kts | 243° |
| 2026-05-07 16:34 | 39.02851 | -7.69040 | 24359 ft | 359 kts | 244° |
| 2026-05-07 16:35 | 39.01761 | -7.71919 | 23983 ft | 358 kts | 244° |
| 2026-05-07 16:35 | 39.00682 | -7.74803 | 23607 ft | 357 kts | 244° |
| 2026-05-07 16:35 | 38.99605 | -7.77671 | 23206 ft | 356 kts | 244° |
| 2026-05-07 16:35 | 38.98528 | -7.80525 | 22815 ft | 354 kts | 244° |
| 2026-05-07 16:36 | 38.97451 | -7.83367 | 22454 ft | 353 kts | 244° |
| 2026-05-07 16:36 | 38.96375 | -7.86197 | 22083 ft | 352 kts | 244° |
| 2026-05-07 16:36 | 38.95297 | -7.89013 | 21714 ft | 351 kts | 244° |
| 2026-05-07 16:36 | 38.94220 | -7.91817 | 21367 ft | 349 kts | 244° |
| 2026-05-07 16:37 | 38.93146 | -7.94610 | 21007 ft | 348 kts | 244° |
| 2026-05-07 16:37 | 38.92081 | -7.97387 | 20651 ft | 344 kts | 244° |
| 2026-05-07 16:37 | 38.91034 | -8.00117 | 20315 ft | 338 kts | 244° |
| 2026-05-07 16:37 | 38.89806 | -8.02664 | 19969 ft | 334 kts | 232° |
| 2026-05-07 16:38 | 38.88335 | -8.04927 | 19726 ft | 327 kts | 231° |
| 2026-05-07 16:38 | 38.86895 | -8.07143 | 19484 ft | 320 kts | 231° |
| 2026-05-07 16:38 | 38.85477 | -8.09332 | 19249 ft | 318 kts | 231° |
| 2026-05-07 16:38 | 38.84067 | -8.11508 | 19007 ft | 317 kts | 231° |
| 2026-05-07 16:39 | 38.82667 | -8.13672 | 18816 ft | 315 kts | 232° |
| 2026-05-07 16:39 | 38.81435 | -8.15983 | 18582 ft | 313 kts | 238° |
| 2026-05-07 16:39 | 38.80661 | -8.17543 | 18427 ft | 313 kts | 238° |
| 2026-05-07 16:39 | 38.79133 | -8.20702 | 18116 ft | 311 kts | 239° |
| 2026-05-07 16:40 | 38.78001 | -8.23064 | 17850 ft | 310 kts | 239° |
| 2026-05-07 16:40 | 38.77253 | -8.24624 | 17674 ft | 310 kts | 238° |
| 2026-05-07 16:40 | 38.76120 | -8.26970 | 17408 ft | 308 kts | 238° |
| 2026-05-07 16:40 | 38.74990 | -8.29303 | 17147 ft | 307 kts | 238° |
| 2026-05-07 16:41 | 38.73867 | -8.31616 | 16890 ft | 305 kts | 238° |
| 2026-05-07 16:41 | 38.72743 | -8.33924 | 16631 ft | 305 kts | 238° |
| 2026-05-07 16:41 | 38.71620 | -8.36225 | 16389 ft | 305 kts | 237° |
| 2026-05-07 16:41 | 38.70139 | -8.39259 | 16052 ft | 302 kts | 237° |
| 2026-05-07 16:42 | 38.69390 | -8.40794 | 15880 ft | 300 kts | 237° |
| 2026-05-07 16:42 | 38.68284 | -8.43060 | 15631 ft | 300 kts | 237° |
| 2026-05-07 16:42 | 38.67177 | -8.45324 | 15393 ft | 301 kts | 237° |
| 2026-05-07 16:42 | 38.66066 | -8.47594 | 15139 ft | 300 kts | 236° |
| 2026-05-07 16:43 | 38.64960 | -8.49850 | 14894 ft | 299 kts | 236° |
| 2026-05-07 16:43 | 38.63862 | -8.52089 | 14661 ft | 295 kts | 236° |
| 2026-05-07 16:43 | 38.62779 | -8.54299 | 14379 ft | 293 kts | 236° |
| 2026-05-07 16:43 | 38.61696 | -8.56504 | 14027 ft | 293 kts | 236° |
| 2026-05-07 16:44 | 38.60608 | -8.58716 | 13648 ft | 295 kts | 236° |
| 2026-05-07 16:44 | 38.59516 | -8.60937 | 13237 ft | 295 kts | 235° |
| 2026-05-07 16:44 | 38.58425 | -8.63157 | 12835 ft | 295 kts | 236° |
| 2026-05-07 16:44 | 38.57337 | -8.65372 | 12489 ft | 293 kts | 236° |
| 2026-05-07 16:45 | 38.56251 | -8.67582 | 12083 ft | 294 kts | 235° |
| 2026-05-07 16:45 | 38.55170 | -8.69778 | 11727 ft | 292 kts | 235° |
| 2026-05-07 16:45 | 38.54094 | -8.71961 | 11470 ft | 287 kts | 235° |
| 2026-05-07 16:45 | 38.53034 | -8.74104 | 11004 ft | 290 kts | 235° |
| 2026-05-07 16:46 | 38.51948 | -8.76297 | 10616 ft | 290 kts | 236° |
| 2026-05-07 16:46 | 38.50891 | -8.78434 | 10343 ft | 286 kts | 235° |
| 2026-05-07 16:46 | 38.49838 | -8.80567 | 10006 ft | 284 kts | 235° |
| 2026-05-07 16:46 | 38.48788 | -8.82686 | 9676 ft | 281 kts | 234° |
| 2026-05-07 16:47 | 38.47742 | -8.84795 | 9254 ft | 281 kts | 235° |
| 2026-05-07 16:47 | 38.46702 | -8.86897 | 8841 ft | 280 kts | 236° |
| 2026-05-07 16:47 | 38.45666 | -8.88996 | 8444 ft | 279 kts | 234° |
| 2026-05-07 16:47 | 38.44729 | -8.91131 | 8215 ft | 275 kts | 246° |
| 2026-05-07 16:48 | 38.44407 | -8.93537 | 8087 ft | 280 kts | 269° |
| 2026-05-07 16:48 | 38.44871 | -8.95959 | 7964 ft | 286 kts | 289° |
| 2026-05-07 16:48 | 38.45657 | -8.98282 | 7730 ft | 284 kts | 290° |
| 2026-05-07 16:48 | 38.46439 | -9.00559 | 7538 ft | 272 kts | 290° |
| 2026-05-07 16:49 | 38.47173 | -9.02683 | 7413 ft | 251 kts | 289° |
| 2026-05-07 16:49 | 38.47860 | -9.04671 | 7156 ft | 241 kts | 289° |
| 2026-05-07 16:49 | 38.48530 | -9.06625 | 6917 ft | 239 kts | 289° |
| 2026-05-07 16:49 | 38.49195 | -9.08575 | 6592 ft | 241 kts | 289° |
| 2026-05-07 16:50 | 38.49871 | -9.10578 | 6020 ft | 247 kts | 290° |
| 2026-05-07 16:50 | 38.50537 | -9.12541 | 5789 ft | 233 kts | 290° |
| 2026-05-07 16:50 | 38.51166 | -9.14389 | 5686 ft | 224 kts | 290° |
| 2026-05-07 16:50 | 38.51782 | -9.16209 | 5580 ft | 223 kts | 290° |
| 2026-05-07 16:51 | 38.52397 | -9.18024 | 5480 ft | 222 kts | 290° |
| 2026-05-07 16:51 | 38.53081 | -9.19785 | 5385 ft | 223 kts | 305° |
| 2026-05-07 16:51 | 38.54277 | -9.21075 | 5194 ft | 232 kts | 331° |
| 2026-05-07 16:51 | 38.55758 | -9.21875 | 4819 ft | 229 kts | 336° |
| 2026-05-07 16:52 | 38.57209 | -9.22633 | 4472 ft | 222 kts | 335° |
| 2026-05-07 16:52 | 38.58652 | -9.23237 | 4155 ft | 216 kts | 350° |
| 2026-05-07 16:52 | 38.60140 | -9.23141 | 3851 ft | 214 kts | 13° |
| 2026-05-07 16:52 | 38.61509 | -9.22461 | 3591 ft | 208 kts | 19° |
| 2026-05-07 16:53 | 38.62812 | -9.21765 | 3306 ft | 198 kts | 18° |
| 2026-05-07 16:53 | 38.64059 | -9.21101 | 3032 ft | 189 kts | 19° |
| 2026-05-07 16:53 | 38.65222 | -9.20480 | 2790 ft | 174 kts | 17° |
| 2026-05-07 16:53 | 38.66294 | -9.19908 | 2543 ft | 161 kts | 19° |
| 2026-05-07 16:54 | 38.67315 | -9.19365 | 2365 ft | 154 kts | 16° |
| 2026-05-07 16:54 | 38.68276 | -9.18853 | 2141 ft | 146 kts | 15° |
| 2026-05-07 16:54 | 38.69202 | -9.18361 | 1942 ft | 143 kts | 15° |
| 2026-05-07 16:54 | 38.70110 | -9.17877 | 1750 ft | 141 kts | 14° |
| 2026-05-07 16:55 | 38.70998 | -9.17404 | 1560 ft | 141 kts | 17° |
| 2026-05-07 16:55 | 38.71900 | -9.16923 | 1369 ft | 141 kts | 15° |
| 2026-05-07 16:55 | 38.72800 | -9.16444 | 1183 ft | 143 kts | 17° |
| 2026-05-07 16:55 | 38.73713 | -9.15956 | 994 ft | 142 kts | 16° |
| 2026-05-07 16:56 | 38.74612 | -9.15475 | 805 ft | 140 kts | 17° |
| 2026-05-07 16:56 | 38.75506 | -9.14995 | 645 ft | 139 kts | 20° |
| 2026-05-07 16:56 | 38.77256 | -9.14085 | 363 ft | 110 kts | 23° |
| 2026-05-07 16:57 | 38.77787 | -9.13777 | 362 ft | 59 kts | 22° |
| 2026-05-07 16:57 | 38.78052 | -9.13636 | 366 ft | 36 kts | 22° |
| 2026-05-07 16:57 | 38.78244 | -9.13515 | 368 ft | 28 kts | 38° |
| 2026-05-07 16:57 | 38.78361 | -9.13366 | 363 ft | 16 kts | 49° |
| 2026-05-07 16:58 | 38.78355 | -9.13270 | 360 ft | 9 kts | 148° |
| 2026-05-07 16:58 | 38.78306 | -9.13272 | 362 ft | 2 kts | 198° |
| 2026-05-07 16:58 | 38.78282 | -9.13284 | 361 ft | 6 kts | 203° |
| 2026-05-07 16:58 | 38.78270 | -9.13290 | 363 ft | 0 kts | 202° |
| 2026-05-07 16:59 | 38.78259 | -9.13296 | 360 ft | 8 kts | 202° |
| 2026-05-07 16:59 | 38.78206 | -9.13325 | 361 ft | 9 kts | 202° |
| 2026-05-07 16:59 | 38.78142 | -9.13358 | 359 ft | 11 kts | 202° |
| 2026-05-07 16:59 | 38.78085 | -9.13389 | 359 ft | 8 kts | 203° |
| 2026-05-07 17:00 | 38.78034 | -9.13413 | 360 ft | 8 kts | 191° |
| 2026-05-07 17:00 | 38.77959 | -9.13400 | 353 ft | 13 kts | 168° |
| 2026-05-07 17:00 | 38.77874 | -9.13376 | 349 ft | 13 kts | 168° |
| 2026-05-07 17:00 | 38.77778 | -9.13350 | 352 ft | 15 kts | 169° |
| 2026-05-07 17:01 | 38.77668 | -9.13323 | 338 ft | 16 kts | 171° |
| 2026-05-07 17:01 | 38.77572 | -9.13317 | 338 ft | 7 kts | 172° |
| 2026-05-07 17:01 | 38.77526 | -9.13305 | 338 ft | 6 kts | 168° |
| 2026-05-07 17:01 | 38.77485 | -9.13294 | 334 ft | 6 kts | 168° |
| 2026-05-07 17:02 | 38.77416 | -9.13275 | 338 ft | 11 kts | 168° |
| 2026-05-07 17:02 | 38.77347 | -9.13261 | 336 ft | 10 kts | 171° |
| 2026-05-07 17:02 | 38.77276 | -9.13246 | 337 ft | 11 kts | 168° |
| 2026-05-07 17:02 | 38.77215 | -9.13229 | 336 ft | 6 kts | 168° |
| 2026-05-07 17:03 | 38.77199 | -9.13190 | 336 ft | 3 kts | 84° |
| 2026-05-07 17:03 | 38.77203 | -9.13156 | 337 ft | 3 kts | 79° |
| 2026-05-07 17:03 | 38.77206 | -9.13141 | 333 ft | 0 kts | 78° |
| 2026-05-07 17:03 | 38.77206 | -9.13139 | 333 ft | 1 kts | 78° |
| 2026-05-07 17:04 | 38.77206 | -9.13137 | 333 ft | 0 kts | 78° |